createdAt,value
2018-06-04T00:00:41.377Z,22.00
2018-06-04T00:05:44.774Z,21.90
2018-06-04T00:10:48.278Z,21.80
2018-06-04T00:15:52.141Z,21.70
2018-06-04T00:20:55.576Z,21.50
2018-06-04T00:25:58.995Z,21.40
2018-06-04T00:31:02.449Z,21.30
2018-06-04T00:36:05.888Z,21.30
2018-06-04T00:41:09.314Z,21.20
2018-06-04T00:46:12.764Z,21.20
2018-06-04T00:51:16.216Z,21.10
2018-06-04T00:56:23.178Z,21.00
2018-06-04T01:01:26.638Z,21.00
2018-06-04T01:06:30.032Z,20.90
2018-06-04T01:11:33.449Z,20.80
2018-06-04T01:16:36.895Z,20.80
2018-06-04T01:21:40.341Z,20.70
2018-06-04T01:26:43.741Z,20.70
2018-06-04T01:31:47.174Z,20.60
2018-06-04T01:36:50.560Z,20.60
2018-06-04T01:41:53.953Z,20.60
2018-06-04T01:46:57.346Z,20.50
2018-06-04T01:52:00.758Z,20.50
2018-06-04T01:57:04.159Z,20.40
2018-06-04T02:02:07.612Z,20.40
2018-06-04T02:07:10.991Z,20.30
2018-06-04T02:12:14.364Z,20.20
2018-06-04T02:17:17.749Z,20.10
2018-06-04T02:22:21.124Z,20.00
2018-06-04T02:27:24.491Z,19.90
2018-06-04T02:32:27.893Z,19.80
2018-06-04T02:37:31.301Z,19.80
2018-06-04T02:42:34.641Z,19.70
2018-06-04T02:47:38.022Z,19.70
2018-06-04T02:52:41.405Z,19.60
2018-06-04T02:57:44.795Z,19.60
2018-06-04T03:02:48.157Z,19.60
2018-06-04T03:07:51.521Z,19.50
2018-06-04T03:12:54.870Z,19.50
2018-06-04T03:17:58.264Z,19.40
2018-06-04T03:23:01.664Z,19.40
2018-06-04T03:28:05.061Z,19.30
2018-06-04T03:33:08.532Z,19.30
2018-06-04T03:38:11.932Z,19.20
2018-06-04T03:43:15.369Z,19.20
2018-06-04T03:48:18.783Z,19.20
2018-06-04T03:53:22.210Z,19.10
2018-06-04T03:58:25.632Z,19.20
2018-06-04T04:03:29.027Z,19.20
2018-06-04T04:08:32.444Z,19.20
2018-06-04T04:18:38.981Z,19.20
2018-06-04T04:23:43.653Z,19.20
2018-06-04T04:28:47.057Z,19.20
2018-06-04T04:33:50.458Z,19.20
2018-06-04T04:38:53.870Z,19.20
2018-06-04T04:43:57.250Z,19.20
2018-06-04T04:49:00.621Z,19.20
2018-06-04T04:54:03.997Z,19.20
2018-06-04T04:59:07.365Z,19.20
2018-06-04T05:04:10.729Z,19.30
2018-06-04T05:09:14.189Z,19.40
2018-06-04T05:14:17.629Z,19.50
2018-06-04T05:19:21.033Z,19.60
2018-06-04T05:24:24.434Z,19.60
2018-06-04T05:29:27.852Z,19.70
2018-06-04T05:34:31.249Z,19.80
2018-06-04T05:39:34.657Z,19.90
2018-06-04T05:44:38.127Z,20.00
2018-06-04T05:49:41.522Z,20.10
2018-06-04T05:54:44.904Z,20.30
2018-06-04T05:59:48.308Z,20.50
2018-06-04T06:04:51.729Z,20.60
2018-06-04T06:09:55.115Z,20.80
2018-06-04T06:14:58.514Z,21.00
2018-06-04T06:20:01.899Z,21.30
2018-06-04T06:25:05.365Z,21.60
2018-06-04T06:30:08.718Z,21.80
2018-06-04T06:35:12.145Z,22.00
2018-06-04T06:40:15.569Z,22.30
2018-06-04T06:45:18.947Z,22.50
2018-06-04T06:50:22.316Z,22.80
2018-06-04T06:55:25.704Z,23.00
2018-06-04T07:00:29.148Z,23.20
2018-06-04T07:05:32.532Z,23.40
2018-06-04T07:10:35.921Z,23.70
2018-06-04T07:15:39.289Z,23.90
2018-06-04T07:20:42.669Z,24.10
2018-06-04T07:25:46.093Z,24.30
2018-06-04T07:30:49.509Z,24.50
2018-06-04T07:35:52.928Z,24.80
2018-06-04T07:40:56.319Z,25.00
2018-06-04T07:45:59.740Z,25.30
2018-06-04T07:51:03.140Z,25.40
2018-06-04T07:56:06.557Z,25.60
2018-06-04T08:01:09.949Z,25.80
2018-06-04T08:06:13.409Z,26.00
2018-06-04T08:11:16.717Z,26.20
2018-06-04T08:16:20.108Z,26.40
2018-06-04T08:21:23.474Z,26.60
2018-06-04T08:26:26.829Z,26.70
2018-06-04T08:31:30.225Z,27.00
2018-06-04T08:36:33.614Z,27.10
2018-06-04T08:41:36.992Z,27.30
2018-06-04T08:46:40.417Z,27.40
2018-06-04T08:51:43.847Z,27.60
2018-06-04T08:56:47.328Z,27.70
2018-06-04T09:01:50.732Z,27.90
2018-06-04T09:06:54.132Z,28.00
2018-06-04T09:11:57.549Z,28.20
2018-06-04T09:17:00.967Z,28.40
2018-06-04T09:22:04.459Z,28.60
2018-06-04T09:27:07.981Z,28.80
2018-06-04T09:32:11.520Z,29.00
2018-06-04T09:37:14.993Z,29.20
2018-06-04T09:42:18.471Z,29.40
2018-06-04T09:47:21.989Z,29.50
2018-06-04T09:52:25.507Z,29.70
2018-06-04T09:57:28.982Z,29.90
2018-06-04T10:07:35.742Z,30.20
2018-06-04T10:12:39.287Z,30.40
2018-06-04T10:17:42.768Z,30.60
2018-06-04T10:22:46.364Z,30.80
2018-06-04T10:27:49.991Z,30.90
2018-06-04T10:32:53.621Z,31.00
2018-06-04T10:37:57.232Z,31.20
2018-06-04T10:43:00.825Z,31.30
2018-06-04T10:48:04.618Z,31.40
2018-06-04T10:53:08.313Z,31.50
2018-06-04T10:58:11.858Z,31.70
2018-06-04T11:03:15.484Z,31.80
2018-06-04T11:08:19.301Z,32.10
2018-06-04T11:13:23.014Z,32.20
2018-06-04T11:18:26.702Z,32.40
2018-06-04T11:23:31.485Z,32.60
2018-06-04T11:28:35.296Z,32.70
2018-06-04T11:33:38.996Z,32.90
2018-06-04T11:38:46.126Z,33.00
2018-06-04T11:43:49.916Z,33.20
2018-06-04T11:48:53.604Z,33.30
2018-06-04T11:53:57.237Z,33.50
2018-06-04T11:59:00.896Z,33.50
2018-06-04T12:04:05.101Z,33.70
2018-06-04T12:09:10.783Z,33.80
2018-06-04T12:14:14.528Z,33.90
2018-06-04T12:19:18.269Z,34.10
2018-06-04T12:24:22.251Z,34.10
2018-06-04T12:29:26.041Z,34.20
2018-06-04T12:34:35.061Z,34.20
2018-06-04T12:39:41.294Z,34.40
2018-06-04T12:44:49.204Z,34.60
2018-06-04T12:49:55.881Z,34.80
2018-06-04T13:00:06.797Z,35.10
2018-06-04T13:05:13.236Z,35.30
2018-06-04T13:10:16.971Z,35.50
2018-06-04T13:15:20.794Z,35.60
2018-06-04T13:20:24.532Z,35.80
2018-06-04T13:25:29.540Z,35.80
2018-06-04T13:30:33.406Z,35.90
2018-06-04T13:35:38.936Z,36.00
2018-06-04T13:40:43.297Z,36.00
2018-06-04T13:45:47.040Z,36.00
2018-06-04T13:50:51.441Z,35.90
2018-06-04T14:06:17.546Z,35.60
2018-06-04T14:11:32.345Z,35.50
2018-06-04T14:16:46.724Z,35.50
2018-06-04T14:22:02.558Z,35.50
2018-06-04T14:27:14.538Z,35.70
2018-06-04T14:32:31.792Z,35.80
2018-06-04T14:37:42.863Z,35.80
2018-06-04T14:42:52.792Z,36.00
2018-06-04T14:48:02.810Z,36.10
2018-06-04T14:53:15.227Z,36.30
2018-06-04T14:58:31.926Z,36.40
2018-06-04T15:03:42.501Z,36.40
2018-06-04T15:14:32.702Z,36.60
2018-06-04T15:19:41.953Z,36.70
2018-06-04T15:25:00.628Z,36.70
2018-06-04T15:30:13.544Z,36.60
2018-06-04T15:35:30.675Z,36.60
2018-06-04T15:40:43.472Z,36.60
2018-06-04T15:51:04.258Z,36.60
2018-06-04T15:56:18.159Z,36.60
2018-06-04T16:06:46.509Z,36.60
2018-06-04T16:12:04.043Z,36.50
2018-06-04T16:17:13.828Z,36.50
2018-06-04T16:22:25.525Z,36.50
2018-06-04T16:27:38.095Z,36.40
2018-06-04T16:32:54.885Z,36.20
2018-06-04T16:38:03.090Z,36.10
2018-06-04T16:43:08.856Z,35.90
2018-06-04T16:48:18.485Z,35.70
2018-06-04T16:53:38.446Z,35.50
2018-06-04T16:58:46.668Z,35.30
2018-06-04T17:03:51.629Z,35.20
2018-06-04T17:14:16.618Z,35.00
2018-06-04T17:19:27.187Z,34.90
2018-06-04T17:29:47.672Z,34.60
2018-06-04T17:34:56.408Z,34.40
2018-06-04T17:40:04.230Z,34.10
2018-06-04T17:45:10.383Z,33.80
2018-06-04T17:50:18.844Z,33.50
2018-06-04T17:55:25.796Z,33.30
2018-06-04T18:05:34.928Z,32.70
2018-06-04T18:10:40.055Z,32.50
2018-06-04T18:15:45.669Z,32.40
2018-06-04T18:20:49.362Z,32.30
2018-06-04T18:25:55.508Z,32.10
2018-06-04T18:36:13.854Z,31.90
2018-06-04T18:41:23.687Z,31.70
2018-06-04T18:46:33.221Z,31.60
2018-06-04T19:02:13.084Z,30.90
2018-06-04T19:07:16.813Z,30.70
2018-06-04T19:12:20.593Z,30.50
2018-06-04T19:17:25.311Z,30.30
2018-06-04T19:22:29.104Z,30.10
2018-06-04T19:27:32.816Z,29.90
2018-06-04T19:32:36.573Z,29.80
2018-06-04T19:37:40.369Z,29.60
2018-06-04T19:42:44.056Z,29.40
2018-06-04T19:47:48.696Z,29.20
2018-06-04T19:52:53.292Z,29.00
2018-06-04T19:57:57.895Z,28.80
2018-06-04T20:03:01.578Z,28.60
2018-06-04T20:08:05.721Z,28.50
2018-06-04T20:13:10.445Z,28.30
2018-06-04T20:18:14.236Z,28.10
2018-06-04T20:23:17.925Z,28.00
2018-06-04T20:28:21.557Z,27.90
2018-06-04T20:33:25.277Z,27.70
2018-06-04T20:38:29.005Z,27.60
2018-06-04T20:43:32.767Z,27.50
2018-06-04T20:48:36.500Z,27.40
2018-06-04T20:53:40.350Z,27.30
2018-06-04T20:58:44.080Z,27.20
2018-06-04T21:03:47.705Z,27.10
2018-06-04T21:08:51.353Z,27.00
2018-06-04T21:13:54.992Z,26.90
2018-06-04T21:18:58.605Z,26.80
2018-06-04T21:24:02.196Z,26.70
2018-06-04T21:29:05.929Z,26.60
2018-06-04T21:34:09.621Z,26.50
2018-06-04T21:39:13.189Z,26.40
2018-06-04T21:44:16.819Z,26.30
2018-06-04T21:49:21.032Z,26.20
2018-06-04T21:59:27.694Z,26.00
2018-06-04T22:04:31.279Z,25.90
2018-06-04T22:09:34.834Z,25.80
2018-06-04T22:14:38.413Z,25.70
2018-06-04T22:24:45.060Z,25.50
2018-06-04T22:29:48.539Z,25.50
2018-06-04T22:34:52.014Z,25.40
2018-06-04T22:39:55.522Z,25.30
2018-06-04T22:44:59.168Z,25.20
2018-06-04T22:50:03.369Z,25.10
2018-06-04T22:55:06.938Z,25.00
2018-06-04T23:00:10.888Z,24.90
2018-06-04T23:10:17.538Z,24.70
2018-06-04T23:15:21.817Z,24.70
2018-06-04T23:20:25.243Z,24.60
2018-06-04T23:25:28.728Z,24.60
2018-06-04T23:30:32.214Z,24.50
2018-06-04T23:35:35.750Z,24.40
2018-06-04T23:40:39.230Z,24.40
2018-06-04T23:45:42.816Z,24.20
2018-06-04T23:50:46.268Z,24.20
